sensor_id;sensor_type;location;lat;lon;timestamp;P1;durP1;ratioP1;P2;durP2;ratioP2
23754;SDS011;12057;52.042;6.830;2023-04-28T00:04:18;12.47;;;4.17;;
23754;SDS011;12057;52.042;6.830;2023-04-28T00:09:19;8.10;;;2.90;;
23754;SDS011;12057;52.042;6.830;2023-04-28T00:14:19;8.67;;;3.40;;
23754;SDS011;12057;52.042;6.830;2023-04-28T00:19:20;10.50;;;3.50;;
23754;SDS011;12057;52.042;6.830;2023-04-28T00:24:21;9.23;;;3.23;;
23754;SDS011;12057;52.042;6.830;2023-04-28T00:29:25;16.50;;;3.30;;
23754;SDS011;12057;52.042;6.830;2023-04-28T00:34:28;8.27;;;3.08;;
23754;SDS011;12057;52.042;6.830;2023-04-28T00:39:32;7.97;;;3.10;;
23754;SDS011;12057;52.042;6.830;2023-04-28T00:44:33;15.80;;;3.53;;
23754;SDS011;12057;52.042;6.830;2023-04-28T00:49:34;8.10;;;3.63;;
23754;SDS011;12057;52.042;6.830;2023-04-28T00:54:35;12.55;;;3.55;;
23754;SDS011;12057;52.042;6.830;2023-04-28T00:59:36;12.80;;;3.70;;
23754;SDS011;12057;52.042;6.830;2023-04-28T01:04:37;7.40;;;3.53;;
23754;SDS011;12057;52.042;6.830;2023-04-28T01:09:38;9.83;;;4.20;;
23754;SDS011;12057;52.042;6.830;2023-04-28T01:14:39;8.30;;;3.73;;
23754;SDS011;12057;52.042;6.830;2023-04-28T01:19:40;11.13;;;3.13;;
23754;SDS011;12057;52.042;6.830;2023-04-28T01:24:41;10.90;;;3.53;;
23754;SDS011;12057;52.042;6.830;2023-04-28T01:29:42;10.02;;;3.45;;
23754;SDS011;12057;52.042;6.830;2023-04-28T01:34:42;10.03;;;3.97;;
23754;SDS011;12057;52.042;6.830;2023-04-28T01:39:43;6.43;;;3.43;;
23754;SDS011;12057;52.042;6.830;2023-04-28T01:44:44;9.43;;;3.50;;
23754;SDS011;12057;52.042;6.830;2023-04-28T01:49:45;13.10;;;3.83;;
23754;SDS011;12057;52.042;6.830;2023-04-28T01:54:47;13.20;;;4.22;;
23754;SDS011;12057;52.042;6.830;2023-04-28T01:59:48;11.13;;;5.17;;
23754;SDS011;12057;52.042;6.830;2023-04-28T02:04:48;16.03;;;4.10;;
23754;SDS011;12057;52.042;6.830;2023-04-28T02:09:49;11.13;;;3.60;;
23754;SDS011;12057;52.042;6.830;2023-04-28T02:14:50;9.83;;;4.23;;
23754;SDS011;12057;52.042;6.830;2023-04-28T02:19:57;12.27;;;4.23;;
23754;SDS011;12057;52.042;6.830;2023-04-28T02:24:57;12.02;;;4.38;;
23754;SDS011;12057;52.042;6.830;2023-04-28T02:29:58;8.83;;;3.93;;
23754;SDS011;12057;52.042;6.830;2023-04-28T02:34:59;12.13;;;4.03;;
23754;SDS011;12057;52.042;6.830;2023-04-28T02:40:00;12.70;;;5.27;;
23754;SDS011;12057;52.042;6.830;2023-04-28T02:45:01;10.48;;;4.78;;
23754;SDS011;12057;52.042;6.830;2023-04-28T02:50:02;17.93;;;4.97;;
23754;SDS011;12057;52.042;6.830;2023-04-28T02:55:03;8.83;;;4.53;;
23754;SDS011;12057;52.042;6.830;2023-04-28T03:00:05;11.70;;;4.47;;
23754;SDS011;12057;52.042;6.830;2023-04-28T03:05:06;6.75;;;4.05;;
23754;SDS011;12057;52.042;6.830;2023-04-28T03:10:07;24.00;;;6.13;;
23754;SDS011;12057;52.042;6.830;2023-04-28T03:15:08;11.93;;;5.00;;
23754;SDS011;12057;52.042;6.830;2023-04-28T03:20:09;16.15;;;5.65;;
23754;SDS011;12057;52.042;6.830;2023-04-28T03:25:10;22.90;;;5.25;;
23754;SDS011;12057;52.042;6.830;2023-04-28T03:30:14;9.10;;;3.50;;
23754;SDS011;12057;52.042;6.830;2023-04-28T03:35:15;10.32;;;5.50;;
23754;SDS011;12057;52.042;6.830;2023-04-28T03:40:16;11.10;;;5.53;;
23754;SDS011;12057;52.042;6.830;2023-04-28T03:45:17;13.43;;;6.25;;
23754;SDS011;12057;52.042;6.830;2023-04-28T03:50:18;18.00;;;6.10;;
23754;SDS011;12057;52.042;6.830;2023-04-28T03:55:18;14.33;;;5.57;;
23754;SDS011;12057;52.042;6.830;2023-04-28T04:00:19;28.17;;;6.77;;
23754;SDS011;12057;52.042;6.830;2023-04-28T04:05:20;16.50;;;5.63;;
23754;SDS011;12057;52.042;6.830;2023-04-28T04:10:21;18.15;;;6.75;;
23754;SDS011;12057;52.042;6.830;2023-04-28T04:15:22;19.97;;;6.90;;
23754;SDS011;12057;52.042;6.830;2023-04-28T04:20:23;17.50;;;5.33;;
23754;SDS011;12057;52.042;6.830;2023-04-28T04:25:23;14.93;;;7.07;;
23754;SDS011;12057;52.042;6.830;2023-04-28T04:30:24;19.50;;;7.57;;
23754;SDS011;12057;52.042;6.830;2023-04-28T04:35:25;15.03;;;7.07;;
23754;SDS011;12057;52.042;6.830;2023-04-28T04:40:26;16.43;;;6.83;;
23754;SDS011;12057;52.042;6.830;2023-04-28T04:45:26;19.73;;;6.50;;
23754;SDS011;12057;52.042;6.830;2023-04-28T04:50:27;11.60;;;6.13;;
23754;SDS011;12057;52.042;6.830;2023-04-28T04:55:28;18.63;;;7.50;;
23754;SDS011;12057;52.042;6.830;2023-04-28T05:00:29;20.17;;;7.10;;
23754;SDS011;12057;52.042;6.830;2023-04-28T05:05:30;16.17;;;7.30;;
23754;SDS011;12057;52.042;6.830;2023-04-28T05:10:31;19.88;;;8.52;;
23754;SDS011;12057;52.042;6.830;2023-04-28T05:15:32;19.17;;;8.27;;
23754;SDS011;12057;52.042;6.830;2023-04-28T05:20:33;19.70;;;9.03;;
23754;SDS011;12057;52.042;6.830;2023-04-28T05:25:33;26.93;;;9.77;;
23754;SDS011;12057;52.042;6.830;2023-04-28T05:30:34;20.37;;;8.90;;
23754;SDS011;12057;52.042;6.830;2023-04-28T05:35:35;18.57;;;8.73;;
23754;SDS011;12057;52.042;6.830;2023-04-28T05:40:36;22.07;;;9.53;;
23754;SDS011;12057;52.042;6.830;2023-04-28T05:45:37;19.17;;;8.70;;
23754;SDS011;12057;52.042;6.830;2023-04-28T05:50:38;18.73;;;9.13;;
23754;SDS011;12057;52.042;6.830;2023-04-28T05:55:38;21.80;;;9.43;;
23754;SDS011;12057;52.042;6.830;2023-04-28T06:00:39;17.80;;;9.17;;
23754;SDS011;12057;52.042;6.830;2023-04-28T06:05:40;26.23;;;10.03;;
23754;SDS011;12057;52.042;6.830;2023-04-28T06:10:41;37.67;;;10.17;;
23754;SDS011;12057;52.042;6.830;2023-04-28T06:15:42;29.17;;;10.13;;
23754;SDS011;12057;52.042;6.830;2023-04-28T06:20:42;25.77;;;9.60;;
23754;SDS011;12057;52.042;6.830;2023-04-28T06:25:43;17.00;;;9.57;;
23754;SDS011;12057;52.042;6.830;2023-04-28T06:30:44;23.47;;;9.67;;
23754;SDS011;12057;52.042;6.830;2023-04-28T06:35:45;23.77;;;9.90;;
23754;SDS011;12057;52.042;6.830;2023-04-28T06:40:46;22.23;;;11.47;;
23754;SDS011;12057;52.042;6.830;2023-04-28T06:45:49;28.73;;;10.98;;
23754;SDS011;12057;52.042;6.830;2023-04-28T06:50:49;22.10;;;9.77;;
23754;SDS011;12057;52.042;6.830;2023-04-28T06:55:50;20.13;;;9.77;;
23754;SDS011;12057;52.042;6.830;2023-04-28T07:00:51;25.10;;;9.82;;
23754;SDS011;12057;52.042;6.830;2023-04-28T07:05:52;22.63;;;10.97;;
23754;SDS011;12057;52.042;6.830;2023-04-28T07:10:53;22.23;;;10.13;;
23754;SDS011;12057;52.042;6.830;2023-04-28T07:15:57;20.80;;;11.17;;
23754;SDS011;12057;52.042;6.830;2023-04-28T07:20:58;32.30;;;12.15;;
23754;SDS011;12057;52.042;6.830;2023-04-28T07:25:58;26.00;;;11.90;;
23754;SDS011;12057;52.042;6.830;2023-04-28T07:30:59;24.80;;;12.80;;
23754;SDS011;12057;52.042;6.830;2023-04-28T07:36:01;27.27;;;12.05;;
23754;SDS011;12057;52.042;6.830;2023-04-28T07:41:02;28.13;;;12.50;;
23754;SDS011;12057;52.042;6.830;2023-04-28T07:46:03;23.95;;;11.65;;
23754;SDS011;12057;52.042;6.830;2023-04-28T07:51:04;34.67;;;13.27;;
23754;SDS011;12057;52.042;6.830;2023-04-28T07:56:04;29.57;;;12.30;;
23754;SDS011;12057;52.042;6.830;2023-04-28T08:01:05;30.53;;;12.67;;
23754;SDS011;12057;52.042;6.830;2023-04-28T08:06:06;27.88;;;12.25;;
23754;SDS011;12057;52.042;6.830;2023-04-28T08:11:08;24.63;;;12.73;;
23754;SDS011;12057;52.042;6.830;2023-04-28T08:16:08;30.73;;;13.70;;
23754;SDS011;12057;52.042;6.830;2023-04-28T08:21:09;25.77;;;13.63;;
23754;SDS011;12057;52.042;6.830;2023-04-28T08:26:10;37.37;;;15.10;;
23754;SDS011;12057;52.042;6.830;2023-04-28T08:31:11;33.37;;;14.30;;
23754;SDS011;12057;52.042;6.830;2023-04-28T08:36:12;23.87;;;13.37;;
23754;SDS011;12057;52.042;6.830;2023-04-28T08:41:14;32.80;;;13.77;;
23754;SDS011;12057;52.042;6.830;2023-04-28T08:46:15;32.47;;;14.77;;
23754;SDS011;12057;52.042;6.830;2023-04-28T08:51:30;26.85;;;14.05;;
23754;SDS011;12057;52.042;6.830;2023-04-28T08:56:34;31.30;;;13.70;;
23754;SDS011;12057;52.042;6.830;2023-04-28T09:01:35;22.85;;;12.40;;
23754;SDS011;12057;52.042;6.830;2023-04-28T09:06:36;26.43;;;13.60;;
23754;SDS011;12057;52.042;6.830;2023-04-28T09:11:49;23.15;;;13.45;;
23754;SDS011;12057;52.042;6.830;2023-04-28T09:16:50;28.17;;;12.65;;
23754;SDS011;12057;52.042;6.830;2023-04-28T09:21:52;26.92;;;11.85;;
23754;SDS011;12057;52.042;6.830;2023-04-28T09:26:57;27.30;;;11.57;;
23754;SDS011;12057;52.042;6.830;2023-04-28T09:32:12;24.10;;;11.80;;
23754;SDS011;12057;52.042;6.830;2023-04-28T09:37:13;32.22;;;11.80;;
23754;SDS011;12057;52.042;6.830;2023-04-28T09:47:36;24.52;;;10.82;;
23754;SDS011;12057;52.042;6.830;2023-04-28T09:52:41;21.42;;;11.00;;
23754;SDS011;12057;52.042;6.830;2023-04-28T09:57:44;23.58;;;12.07;;
23754;SDS011;12057;52.042;6.830;2023-04-28T10:02:47;30.42;;;12.40;;
23754;SDS011;12057;52.042;6.830;2023-04-28T10:07:49;21.92;;;12.65;;
23754;SDS011;12057;52.042;6.830;2023-04-28T10:12:53;25.27;;;11.98;;
23754;SDS011;12057;52.042;6.830;2023-04-28T10:17:54;27.75;;;13.25;;
23754;SDS011;12057;52.042;6.830;2023-04-28T10:28:09;26.98;;;16.05;;
23754;SDS011;12057;52.042;6.830;2023-04-28T10:38:14;24.75;;;14.20;;
23754;SDS011;12057;52.042;6.830;2023-04-28T10:58:49;34.78;;;16.00;;
23754;SDS011;12057;52.042;6.830;2023-04-28T11:03:57;34.13;;;15.90;;
23754;SDS011;12057;52.042;6.830;2023-04-28T11:19:20;40.27;;;19.67;;
23754;SDS011;12057;52.042;6.830;2023-04-28T11:24:23;35.35;;;19.73;;
23754;SDS011;12057;52.042;6.830;2023-04-28T11:34:35;47.38;;;23.33;;
23754;SDS011;12057;52.042;6.830;2023-04-28T11:39:36;42.90;;;24.42;;
23754;SDS011;12057;52.042;6.830;2023-04-28T11:44:37;47.37;;;26.10;;
23754;SDS011;12057;52.042;6.830;2023-04-28T11:49:42;44.87;;;24.63;;
23754;SDS011;12057;52.042;6.830;2023-04-28T11:54:51;43.92;;;27.80;;
23754;SDS011;12057;52.042;6.830;2023-04-28T12:00:10;55.75;;;30.95;;
23754;SDS011;12057;52.042;6.830;2023-04-28T12:05:18;51.40;;;32.00;;
23754;SDS011;12057;52.042;6.830;2023-04-28T12:10:21;52.05;;;31.05;;
23754;SDS011;12057;52.042;6.830;2023-04-28T12:15:21;48.70;;;30.90;;
23754;SDS011;12057;52.042;6.830;2023-04-28T12:20:37;50.78;;;30.02;;
23754;SDS011;12057;52.042;6.830;2023-04-28T12:25:44;54.45;;;29.70;;
23754;SDS011;12057;52.042;6.830;2023-04-28T12:30:47;51.53;;;28.75;;
23754;SDS011;12057;52.042;6.830;2023-04-28T12:35:47;46.57;;;26.33;;
23754;SDS011;12057;52.042;6.830;2023-04-28T12:40:49;47.00;;;26.73;;
23754;SDS011;12057;52.042;6.830;2023-04-28T12:45:50;44.40;;;25.17;;
23754;SDS011;12057;52.042;6.830;2023-04-28T12:50:55;35.00;;;21.50;;
23754;SDS011;12057;52.042;6.830;2023-04-28T12:55:56;45.40;;;22.57;;
23754;SDS011;12057;52.042;6.830;2023-04-28T13:00:56;28.77;;;17.80;;
23754;SDS011;12057;52.042;6.830;2023-04-28T13:05:57;26.47;;;15.27;;
23754;SDS011;12057;52.042;6.830;2023-04-28T13:10:58;25.53;;;14.17;;
23754;SDS011;12057;52.042;6.830;2023-04-28T13:15:59;21.63;;;14.03;;
23754;SDS011;12057;52.042;6.830;2023-04-28T13:20:59;21.77;;;13.83;;
23754;SDS011;12057;52.042;6.830;2023-04-28T13:26:00;23.60;;;14.00;;
23754;SDS011;12057;52.042;6.830;2023-04-28T13:31:01;18.97;;;12.57;;
23754;SDS011;12057;52.042;6.830;2023-04-28T13:36:02;16.20;;;10.60;;
23754;SDS011;12057;52.042;6.830;2023-04-28T13:41:02;18.87;;;11.57;;
23754;SDS011;12057;52.042;6.830;2023-04-28T13:46:03;20.03;;;11.07;;
23754;SDS011;12057;52.042;6.830;2023-04-28T13:51:07;15.55;;;11.50;;
23754;SDS011;12057;52.042;6.830;2023-04-28T13:56:08;19.50;;;11.52;;
23754;SDS011;12057;52.042;6.830;2023-04-28T14:01:10;17.63;;;11.55;;
23754;SDS011;12057;52.042;6.830;2023-04-28T14:06:10;20.47;;;12.73;;
23754;SDS011;12057;52.042;6.830;2023-04-28T14:11:11;17.53;;;11.10;;
23754;SDS011;12057;52.042;6.830;2023-04-28T14:16:12;15.80;;;11.33;;
23754;SDS011;12057;52.042;6.830;2023-04-28T14:21:13;23.53;;;13.90;;
23754;SDS011;12057;52.042;6.830;2023-04-28T14:26:14;20.17;;;13.27;;
23754;SDS011;12057;52.042;6.830;2023-04-28T14:31:15;22.20;;;12.60;;
23754;SDS011;12057;52.042;6.830;2023-04-28T14:36:16;16.10;;;10.60;;
23754;SDS011;12057;52.042;6.830;2023-04-28T14:41:17;22.10;;;10.77;;
23754;SDS011;12057;52.042;6.830;2023-04-28T14:46:18;14.77;;;9.50;;
23754;SDS011;12057;52.042;6.830;2023-04-28T14:51:21;20.13;;;10.27;;
23754;SDS011;12057;52.042;6.830;2023-04-28T14:56:22;20.25;;;11.48;;
23754;SDS011;12057;52.042;6.830;2023-04-28T15:01:23;12.20;;;8.30;;
23754;SDS011;12057;52.042;6.830;2023-04-28T15:06:24;16.23;;;9.53;;
23754;SDS011;12057;52.042;6.830;2023-04-28T15:11:25;16.40;;;8.93;;
23754;SDS011;12057;52.042;6.830;2023-04-28T15:16:26;12.17;;;7.60;;
23754;SDS011;12057;52.042;6.830;2023-04-28T15:21:27;16.33;;;8.50;;
23754;SDS011;12057;52.042;6.830;2023-04-28T15:26:28;15.35;;;8.70;;
23754;SDS011;12057;52.042;6.830;2023-04-28T15:31:29;15.67;;;9.40;;
23754;SDS011;12057;52.042;6.830;2023-04-28T15:36:30;15.03;;;8.60;;
23754;SDS011;12057;52.042;6.830;2023-04-28T15:41:32;17.65;;;8.50;;
23754;SDS011;12057;52.042;6.830;2023-04-28T15:46:33;17.52;;;8.88;;
23754;SDS011;12057;52.042;6.830;2023-04-28T15:51:35;18.55;;;11.23;;
23754;SDS011;12057;52.042;6.830;2023-04-28T15:56:37;14.57;;;9.73;;
23754;SDS011;12057;52.042;6.830;2023-04-28T16:01:38;21.67;;;10.97;;
23754;SDS011;12057;52.042;6.830;2023-04-28T16:06:38;17.37;;;10.67;;
23754;SDS011;12057;52.042;6.830;2023-04-28T16:11:39;17.10;;;10.73;;
23754;SDS011;12057;52.042;6.830;2023-04-28T16:16:40;16.20;;;9.55;;
23754;SDS011;12057;52.042;6.830;2023-04-28T16:21:42;15.87;;;9.23;;
23754;SDS011;12057;52.042;6.830;2023-04-28T16:26:43;15.63;;;9.68;;
23754;SDS011;12057;52.042;6.830;2023-04-28T16:31:44;15.98;;;9.70;;
23754;SDS011;12057;52.042;6.830;2023-04-28T16:36:45;17.77;;;8.80;;
23754;SDS011;12057;52.042;6.830;2023-04-28T16:41:46;12.23;;;7.57;;
23754;SDS011;12057;52.042;6.830;2023-04-28T16:46:47;16.30;;;7.33;;
23754;SDS011;12057;52.042;6.830;2023-04-28T16:51:57;10.57;;;6.67;;
23754;SDS011;12057;52.042;6.830;2023-04-28T17:02:01;14.05;;;6.55;;
23754;SDS011;12057;52.042;6.830;2023-04-28T17:07:05;10.63;;;7.18;;
23754;SDS011;12057;52.042;6.830;2023-04-28T17:12:06;10.87;;;7.17;;
23754;SDS011;12057;52.042;6.830;2023-04-28T17:17:08;9.67;;;6.23;;
23754;SDS011;12057;52.042;6.830;2023-04-28T17:22:08;10.38;;;6.03;;
23754;SDS011;12057;52.042;6.830;2023-04-28T17:27:09;12.00;;;7.10;;
23754;SDS011;12057;52.042;6.830;2023-04-28T17:32:10;11.03;;;7.23;;
23754;SDS011;12057;52.042;6.830;2023-04-28T17:37:11;10.10;;;6.83;;
23754;SDS011;12057;52.042;6.830;2023-04-28T17:42:12;11.30;;;6.87;;
23754;SDS011;12057;52.042;6.830;2023-04-28T17:47:13;14.07;;;8.40;;
23754;SDS011;12057;52.042;6.830;2023-04-28T17:52:14;13.30;;;9.00;;
23754;SDS011;12057;52.042;6.830;2023-04-28T17:57:15;17.02;;;9.52;;
23754;SDS011;12057;52.042;6.830;2023-04-28T18:07:17;24.70;;;13.27;;
23754;SDS011;12057;52.042;6.830;2023-04-28T18:12:18;20.17;;;9.80;;
23754;SDS011;12057;52.042;6.830;2023-04-28T18:17:22;22.55;;;11.20;;
23754;SDS011;12057;52.042;6.830;2023-04-28T18:22:25;18.52;;;11.93;;
23754;SDS011;12057;52.042;6.830;2023-04-28T18:27:25;19.80;;;11.57;;
23754;SDS011;12057;52.042;6.830;2023-04-28T18:32:26;30.17;;;14.33;;
23754;SDS011;12057;52.042;6.830;2023-04-28T18:37:30;20.00;;;13.32;;
23754;SDS011;12057;52.042;6.830;2023-04-28T18:42:30;24.67;;;14.60;;
23754;SDS011;12057;52.042;6.830;2023-04-28T18:47:32;42.50;;;23.15;;
23754;SDS011;12057;52.042;6.830;2023-04-28T18:52:32;22.13;;;14.03;;
23754;SDS011;12057;52.042;6.830;2023-04-28T18:57:33;26.50;;;15.20;;
23754;SDS011;12057;52.042;6.830;2023-04-28T19:02:34;22.57;;;13.53;;
23754;SDS011;12057;52.042;6.830;2023-04-28T19:07:35;29.73;;;14.80;;
23754;SDS011;12057;52.042;6.830;2023-04-28T19:17:37;26.88;;;15.68;;
23754;SDS011;12057;52.042;6.830;2023-04-28T19:22:38;27.87;;;15.67;;
23754;SDS011;12057;52.042;6.830;2023-04-28T19:27:43;30.10;;;16.83;;
23754;SDS011;12057;52.042;6.830;2023-04-28T19:32:44;30.20;;;16.58;;
23754;SDS011;12057;52.042;6.830;2023-04-28T19:37:45;31.20;;;17.10;;
23754;SDS011;12057;52.042;6.830;2023-04-28T19:42:47;33.30;;;17.35;;
23754;SDS011;12057;52.042;6.830;2023-04-28T19:47:48;32.83;;;17.70;;
23754;SDS011;12057;52.042;6.830;2023-04-28T19:52:48;24.07;;;15.87;;
23754;SDS011;12057;52.042;6.830;2023-04-28T19:57:50;30.47;;;16.07;;
23754;SDS011;12057;52.042;6.830;2023-04-28T20:02:52;29.98;;;16.63;;
23754;SDS011;12057;52.042;6.830;2023-04-28T20:07:53;29.13;;;15.38;;
23754;SDS011;12057;52.042;6.830;2023-04-28T20:12:54;26.33;;;14.70;;
23754;SDS011;12057;52.042;6.830;2023-04-28T20:17:55;28.00;;;15.53;;
23754;SDS011;12057;52.042;6.830;2023-04-28T20:22:56;24.77;;;14.73;;
23754;SDS011;12057;52.042;6.830;2023-04-28T20:27:56;25.57;;;14.70;;
23754;SDS011;12057;52.042;6.830;2023-04-28T20:32:57;23.07;;;13.83;;
23754;SDS011;12057;52.042;6.830;2023-04-28T20:37:58;27.83;;;15.00;;
23754;SDS011;12057;52.042;6.830;2023-04-28T20:42:59;27.17;;;14.50;;
23754;SDS011;12057;52.042;6.830;2023-04-28T20:48:02;24.65;;;13.05;;
23754;SDS011;12057;52.042;6.830;2023-04-28T20:53:03;27.33;;;14.25;;
23754;SDS011;12057;52.042;6.830;2023-04-28T20:58:04;28.30;;;13.73;;
23754;SDS011;12057;52.042;6.830;2023-04-28T21:03:06;34.47;;;17.02;;
23754;SDS011;12057;52.042;6.830;2023-04-28T21:08:14;32.25;;;16.52;;
23754;SDS011;12057;52.042;6.830;2023-04-28T21:13:15;35.45;;;17.58;;
23754;SDS011;12057;52.042;6.830;2023-04-28T21:18:16;38.30;;;17.47;;
23754;SDS011;12057;52.042;6.830;2023-04-28T21:28:18;52.33;;;20.42;;
23754;SDS011;12057;52.042;6.830;2023-04-28T21:33:19;38.97;;;19.00;;
23754;SDS011;12057;52.042;6.830;2023-04-28T21:43:22;44.75;;;20.55;;
23754;SDS011;12057;52.042;6.830;2023-04-28T21:48:23;49.63;;;21.05;;
23754;SDS011;12057;52.042;6.830;2023-04-28T21:53:23;51.83;;;22.13;;
23754;SDS011;12057;52.042;6.830;2023-04-28T21:58:24;50.17;;;21.87;;
23754;SDS011;12057;52.042;6.830;2023-04-28T22:03:25;56.23;;;23.43;;
23754;SDS011;12057;52.042;6.830;2023-04-28T22:08:26;80.70;;;32.80;;
23754;SDS011;12057;52.042;6.830;2023-04-28T22:13:27;72.20;;;28.23;;
23754;SDS011;12057;52.042;6.830;2023-04-28T22:18:28;69.77;;;28.97;;
23754;SDS011;12057;52.042;6.830;2023-04-28T22:23:28;73.30;;;31.27;;
23754;SDS011;12057;52.042;6.830;2023-04-28T22:28:29;82.23;;;32.00;;
23754;SDS011;12057;52.042;6.830;2023-04-28T22:33:31;83.07;;;33.70;;
23754;SDS011;12057;52.042;6.830;2023-04-28T22:38:32;101.88;;;38.35;;
23754;SDS011;12057;52.042;6.830;2023-04-28T22:43:33;94.03;;;42.03;;
23754;SDS011;12057;52.042;6.830;2023-04-28T22:48:34;129.63;;;49.83;;
23754;SDS011;12057;52.042;6.830;2023-04-28T22:53:37;133.90;;;50.37;;
23754;SDS011;12057;52.042;6.830;2023-04-28T22:58:38;130.95;;;46.38;;
23754;SDS011;12057;52.042;6.830;2023-04-28T23:03:39;120.77;;;44.33;;
23754;SDS011;12057;52.042;6.830;2023-04-28T23:08:40;118.43;;;46.43;;
23754;SDS011;12057;52.042;6.830;2023-04-28T23:13:41;110.03;;;42.03;;
23754;SDS011;12057;52.042;6.830;2023-04-28T23:18:41;116.47;;;42.33;;
23754;SDS011;12057;52.042;6.830;2023-04-28T23:23:42;121.47;;;41.22;;
23754;SDS011;12057;52.042;6.830;2023-04-28T23:28:43;113.67;;;41.93;;
23754;SDS011;12057;52.042;6.830;2023-04-28T23:33:44;111.27;;;41.07;;
23754;SDS011;12057;52.042;6.830;2023-04-28T23:38:45;125.07;;;41.60;;
23754;SDS011;12057;52.042;6.830;2023-04-28T23:43:46;134.60;;;42.77;;
23754;SDS011;12057;52.042;6.830;2023-04-28T23:48:47;131.87;;;42.20;;
23754;SDS011;12057;52.042;6.830;2023-04-28T23:53:47;121.07;;;42.50;;
23754;SDS011;12057;52.042;6.830;2023-04-28T23:58:48;111.10;;;37.63;;
